Time;durP1;ratioP1;P1;durP2;ratioP2;P2;SDS_P1;SDS_P2;PMS_P1;PMS_P2;Temp;Humidity;BMP_temperature;BMP_pressure;BME280_temperature;BME280_humidity;BME280_pressure;Samples;Min_cycle;Max_cycle;Signal;HPM_P1;HPM_P2
2021/06/16 00:02:02;;;;;;;6.78;6.22;;;;;;;24.24;61.48;99393.30;1809570;77;21057;-70
2021/06/16 00:04:29;;;;;;;7.33;6.58;;;;;;;24.22;61.46;99387.84;1796812;78;21041;-69
2021/06/16 00:06:56;;;;;;;6.58;6.08;;;;;;;24.20;61.56;99382.67;1814655;78;21053;-69
2021/06/16 00:09:24;;;;;;;6.85;6.10;;;;;;;24.19;61.73;99381.61;1779382;79;21927;-70
2021/06/16 00:11:51;;;;;;;7.05;6.55;;;;;;;24.15;62.04;99385.39;1799664;78;21076;-70
2021/06/16 00:14:21;;;;;;;6.72;6.12;;;;;;;24.14;62.11;99391.89;1800664;77;21096;-69
2021/06/16 00:16:48;;;;;;;6.35;5.75;;;;;;;24.12;62.24;99395.41;1808678;77;21041;-69
2021/06/16 00:19:15;;;;;;;6.80;6.20;;;;;;;24.10;62.31;99394.31;1815918;78;21075;-69
2021/06/16 00:21:41;;;;;;;7.62;7.00;;;;;;;24.08;62.40;99401.09;1817937;78;21104;-69
2021/06/16 00:24:08;;;;;;;7.03;6.53;;;;;;;24.05;62.58;99401.09;1818844;78;21045;-73
2021/06/16 00:26:35;;;;;;;7.53;6.92;;;;;;;24.05;62.64;99409.23;1815225;78;21092;-73
2021/06/16 00:29:02;;;;;;;7.30;6.70;;;;;;;24.03;62.93;99404.61;1816724;78;21530;-73
2021/06/16 00:31:29;;;;;;;6.75;6.25;;;;;;;24.01;63.04;99410.85;1814190;77;21111;-74
2021/06/16 00:33:56;;;;;;;6.95;6.35;;;;;;;24.06;63.07;99407.33;1815819;78;21065;-69
2021/06/16 00:36:24;;;;;;;7.62;6.95;;;;;;;24.14;62.88;99405.45;1784932;78;21357;-74
2021/06/16 00:38:51;;;;;;;7.05;6.45;;;;;;;24.12;63.03;99404.91;1820365;78;21029;-69
2021/06/16 00:41:18;;;;;;;6.53;6.03;;;;;;;24.09;63.24;99401.38;1816939;78;20997;-68
2021/06/16 00:43:44;;;;;;;7.08;6.25;;;;;;;24.07;63.21;99403.00;1817147;78;21063;-68
2021/06/16 00:46:11;;;;;;;7.55;7.00;;;;;;;24.05;63.37;99402.45;1809993;78;21141;-69
2021/06/16 00:48:38;;;;;;;6.75;6.25;;;;;;;24.03;63.60;99403.26;1813662;78;21010;-70
2021/06/16 00:51:05;;;;;;;7.42;6.72;;;;;;;24.02;63.53;99401.61;1817026;77;21014;-68
2021/06/16 00:53:31;;;;;;;7.50;6.90;;;;;;;24.01;63.66;99404.59;1807344;77;21018;-69
2021/06/16 00:55:58;;;;;;;7.50;6.78;;;;;;;24.00;63.74;99407.03;1795440;77;21056;-68
2021/06/16 00:58:24;;;;;;;8.98;7.42;;;;;;;23.97;63.89;99402.12;1807398;78;21978;-70
2021/06/16 01:01:19;;;;;;;8.20;7.50;;;;;;;23.96;63.84;99412.17;1811511;77;21529;-70
2021/06/16 01:04:08;;;;;;;7.55;6.95;;;;;;;23.94;64.01;99399.41;1786782;78;21056;-68
2021/06/16 01:06:52;;;;;;;7.65;6.95;;;;;;;23.90;64.10;99397.77;1807258;78;21049;-69
2021/06/16 01:09:35;;;;;;;7.70;7.05;;;;;;;23.87;64.21;99398.83;1818446;77;21107;-68
2021/06/16 01:12:26;;;;;;;7.22;6.62;;;;;;;23.84;64.43;99399.37;1815032;78;21005;-69
2021/06/16 01:15:12;;;;;;;7.50;6.78;;;;;;;23.88;64.38;99401.83;1805778;77;21084;-68
2021/06/16 01:17:49;;;;;;;7.33;6.70;;;;;;;23.91;64.30;99400.77;1811150;77;21537;-69
2021/06/16 01:20:35;;;;;;;7.47;6.72;;;;;;;23.86;64.57;99395.86;1815828;77;21060;-68
2021/06/16 01:23:37;;;;;;;8.45;7.75;;;;;;;23.84;64.84;99393.41;1814913;77;21548;-68
2021/06/16 01:26:21;;;;;;;6.95;6.35;;;;;;;23.82;64.80;99397.47;1817811;77;22376;-68
2021/06/16 01:28:48;;;;;;;7.35;6.75;;;;;;;23.78;64.84;99393.59;1809765;78;21072;-67
2021/06/16 01:31:17;;;;;;;7.67;7.08;;;;;;;23.74;64.89;99401.47;1768368;77;21091;-67
2021/06/16 01:33:43;;;;;;;7.62;7.03;;;;;;;23.72;65.01;99400.37;1792115;78;21481;-69
2021/06/16 01:36:10;;;;;;;8.00;7.30;;;;;;;23.73;65.09;99399.82;1822836;78;21064;-68
2021/06/16 01:38:37;;;;;;;8.10;7.50;;;;;;;23.70;65.08;99394.39;1819582;78;21147;-68
2021/06/16 01:41:03;;;;;;;8.08;7.37;;;;;;;23.70;65.14;99399.81;1823211;78;20994;-68
2021/06/16 01:43:31;;;;;;;7.72;7.12;;;;;;;23.69;65.16;99409.02;1815047;77;21510;-69
2021/06/16 01:46:00;;;;;;;7.40;6.80;;;;;;;23.69;65.09;99409.56;1822090;77;20965;-68
2021/06/16 01:48:26;;;;;;;7.35;6.70;;;;;;;23.68;65.05;99414.70;1787136;78;21024;-69
2021/06/16 01:50:53;;;;;;;7.85;7.25;;;;;;;23.70;65.05;99412.02;1805779;78;21709;-68
2021/06/16 01:53:21;;;;;;;7.97;7.33;;;;;;;23.77;64.82;99419.91;1803572;77;21094;-68
2021/06/16 01:55:48;;;;;;;8.55;7.78;;;;;;;23.76;64.74;99416.94;1821271;77;21467;-68
2021/06/16 01:58:19;;;;;;;8.70;8.03;;;;;;;23.73;64.67;99423.68;1821325;77;21049;-69
2021/06/16 02:00:46;;;;;;;8.85;8.10;;;;;;;23.72;64.59;99422.58;1812062;77;21095;-67
2021/06/16 02:03:12;;;;;;;8.68;7.97;;;;;;;23.70;64.59;99420.16;1820356;78;21120;-68
2021/06/16 02:05:39;;;;;;;9.50;7.95;;;;;;;23.70;64.56;99425.58;1786441;77;21490;-68
2021/06/16 02:08:19;;;;;;;8.55;7.80;;;;;;;23.69;64.44;99426.64;1813986;77;21128;-68
2021/06/16 02:10:49;;;;;;;9.20;8.40;;;;;;;23.68;64.39;99435.88;1800316;78;20998;-68
2021/06/16 02:13:18;;;;;;;8.08;7.37;;;;;;;23.67;64.43;99445.62;1805474;78;21052;-68
2021/06/16 02:15:58;;;;;;;8.60;7.90;;;;;;;23.66;64.43;99445.33;1782177;78;21092;-68
2021/06/16 02:18:29;;;;;;;8.65;7.80;;;;;;;23.65;64.58;99448.59;1775750;78;21225;-70
2021/06/16 02:20:55;;;;;;;8.73;7.97;;;;;;;23.64;64.61;99445.61;1775566;78;21069;-69
2021/06/16 02:23:22;;;;;;;8.60;7.80;;;;;;;23.63;64.59;99446.68;1808630;78;21025;-68
2021/06/16 02:25:51;;;;;;;10.25;8.73;;;;;;;23.62;64.58;99450.45;1808693;78;21544;-68
2021/06/16 02:28:18;;;;;;;8.50;7.70;;;;;;;23.62;64.59;99452.36;1804683;78;21913;-69
2021/06/16 02:30:45;;;;;;;10.55;9.55;;;;;;;23.61;64.55;99450.73;1813326;78;21285;-69
2021/06/16 02:33:11;;;;;;;10.10;8.48;;;;;;;23.61;64.52;99453.45;1813696;78;21041;-68
2021/06/16 02:35:39;;;;;;;9.80;8.68;;;;;;;23.64;64.55;99463.75;1820241;77;21091;-68
2021/06/16 02:38:12;;;;;;;8.83;7.60;;;;;;;23.72;64.47;99467.33;1817521;77;21103;-69
2021/06/16 02:40:41;;;;;;;8.43;7.60;;;;;;;23.69;64.51;99464.61;1812397;78;21139;-68
2021/06/16 02:43:09;;;;;;;7.97;7.28;;;;;;;23.67;64.60;99469.48;1813986;78;20974;-68
2021/06/16 02:45:37;;;;;;;8.63;7.92;;;;;;;23.64;64.69;99472.73;1813438;77;21054;-69
2021/06/16 02:48:06;;;;;;;8.78;7.97;;;;;;;23.62;64.66;99474.05;1813893;78;21078;-68
2021/06/16 02:50:33;;;;;;;8.88;8.05;;;;;;;23.60;64.81;99471.59;1807996;78;21045;-68
2021/06/16 02:53:04;;;;;;;8.70;7.85;;;;;;;23.58;64.86;99469.68;1819140;78;21157;-67
2021/06/16 02:55:31;;;;;;;10.08;8.48;;;;;;;23.58;64.73;99466.97;1812180;78;21074;-68
2021/06/16 02:57:57;;;;;;;9.13;8.28;;;;;;;23.58;64.63;99468.88;1788251;78;21030;-68
2021/06/16 03:00:24;;;;;;;8.80;8.03;;;;;;;23.57;64.46;99464.00;1813861;78;21021;-69
2021/06/16 03:02:50;;;;;;;8.25;7.47;;;;;;;23.55;64.33;99465.61;1808464;78;21064;-68
2021/06/16 03:05:24;;;;;;;10.35;8.23;;;;;;;23.54;64.41;99464.50;1803065;78;21142;-69
2021/06/16 03:07:53;;;;;;;9.10;8.20;;;;;;;23.53;64.47;99464.24;1816766;77;20982;-66
2021/06/16 03:10:20;;;;;;;8.38;7.58;;;;;;;23.52;64.53;99463.41;1819885;78;21027;-67
2021/06/16 03:12:52;;;;;;;8.80;8.00;;;;;;;23.52;64.51;99460.69;1817857;77;21555;-68
2021/06/16 03:15:20;;;;;;;9.20;8.30;;;;;;;23.52;64.44;99460.69;1816531;78;21550;-68
2021/06/16 03:17:48;;;;;;;9.20;8.08;;;;;;;23.52;64.46;99454.46;1819342;78;21154;-68
2021/06/16 03:20:17;;;;;;;9.90;7.85;;;;;;;23.52;64.42;99462.59;1818612;78;22185;-68
2021/06/16 03:22:43;;;;;;;8.83;8.03;;;;;;;23.52;64.46;99455.81;1817647;78;21025;-68
2021/06/16 03:25:12;;;;;;;7.87;7.08;;;;;;;23.50;64.49;99458.78;1809298;78;21133;-67
2021/06/16 03:27:39;;;;;;;11.18;7.30;;;;;;;23.52;64.50;99459.88;1816354;78;21030;-68
2021/06/16 03:30:07;;;;;;;8.48;7.67;;;;;;;23.61;64.15;99456.97;1811701;78;22927;-68
2021/06/16 03:32:35;;;;;;;11.83;6.80;;;;;;;23.62;63.81;99458.59;1794084;78;21038;-68
2021/06/16 03:35:04;;;;;;;7.75;7.05;;;;;;;23.63;63.55;99464.85;1819763;78;21999;-69
2021/06/16 03:37:31;;;;;;;7.03;6.42;;;;;;;23.62;63.13;99465.37;1795058;78;21037;-67
2021/06/16 03:40:00;;;;;;;7.35;6.65;;;;;;;23.63;62.98;99467.02;1803948;78;22163;-68
2021/06/16 03:42:26;;;;;;;7.28;6.58;;;;;;;23.63;62.33;99462.95;1807770;78;21123;-67
2021/06/16 03:44:52;;;;;;;19.25;17.32;;;;;;;23.62;62.04;99471.34;1798090;77;21061;-67
2021/06/16 03:47:20;;;;;;;15.93;14.25;;;;;;;23.62;61.63;99472.14;1807914;77;20983;-66
2021/06/16 03:49:47;;;;;;;14.60;13.22;;;;;;;23.63;61.37;99472.44;1816974;78;21080;-66
2021/06/16 03:52:13;;;;;;;11.50;10.38;;;;;;;23.63;60.92;99470.27;1812569;78;21100;-67
2021/06/16 03:54:40;;;;;;;10.00;9.10;;;;;;;23.63;60.74;99479.22;1817117;77;21118;-66
2021/06/16 03:57:08;;;;;;;9.18;7.80;;;;;;;23.62;60.54;99484.34;1818768;78;21504;-67
2021/06/16 03:59:35;;;;;;;7.30;6.62;;;;;;;23.64;60.33;99484.93;1818990;78;21076;-67
2021/06/16 04:02:02;;;;;;;7.03;6.33;;;;;;;23.63;60.22;99487.90;1820577;77;21021;-66
2021/06/16 04:04:29;;;;;;;7.00;6.33;;;;;;;23.62;59.85;99496.55;1811456;78;21088;-67
2021/06/16 04:06:57;;;;;;;8.55;6.65;;;;;;;23.63;59.87;99496.03;1815103;78;20983;-66
2021/06/16 04:09:24;;;;;;;7.17;6.20;;;;;;;23.61;59.67;99496.28;1812817;78;20989;-66
2021/06/16 04:11:50;;;;;;;7.35;6.67;;;;;;;23.62;59.72;99499.26;1798131;77;21052;-66
2021/06/16 04:14:17;;;;;;;7.47;6.87;;;;;;;23.62;59.65;99504.68;1742334;77;21088;-68
2021/06/16 04:16:43;;;;;;;9.53;7.05;;;;;;;23.62;59.63;99500.61;1813252;78;21060;-67
2021/06/16 04:19:11;;;;;;;8.50;7.67;;;;;;;23.61;59.50;99498.19;1819074;78;21080;-69
2021/06/16 04:21:38;;;;;;;7.90;7.30;;;;;;;23.62;59.46;99503.88;1804155;78;21473;-68
2021/06/16 04:24:06;;;;;;;7.05;6.40;;;;;;;23.62;59.38;99510.66;1808147;78;21333;-69
2021/06/16 04:26:32;;;;;;;7.58;6.58;;;;;;;23.62;59.48;99501.97;1817265;78;21092;-68
2021/06/16 04:28:59;;;;;;;7.37;6.78;;;;;;;23.63;59.42;99508.23;1799751;78;21076;-69
2021/06/16 04:31:25;;;;;;;7.28;6.58;;;;;;;23.62;59.38;99506.59;1808750;77;21144;-67
2021/06/16 04:33:52;;;;;;;7.97;7.00;;;;;;;23.63;59.40;99510.40;1810182;78;21489;-67
2021/06/16 04:36:19;;;;;;;8.10;6.92;;;;;;;23.63;59.29;99513.66;1800544;78;21040;-67
2021/06/16 04:38:46;;;;;;;7.42;6.62;;;;;;;23.63;59.23;99515.82;1820902;78;21290;-66
2021/06/16 04:41:12;;;;;;;7.15;6.42;;;;;;;23.63;59.21;99518.53;1812684;77;21108;-67
2021/06/16 04:43:38;;;;;;;7.15;6.45;;;;;;;23.64;59.27;99514.76;1815312;78;21110;-70
2021/06/16 04:46:05;;;;;;;11.43;6.60;;;;;;;23.66;59.17;99518.55;1815920;78;21477;-67
2021/06/16 04:48:31;;;;;;;7.42;6.75;;;;;;;23.65;59.04;99520.45;1814790;77;21013;-68
2021/06/16 04:50:58;;;;;;;6.97;6.37;;;;;;;23.66;58.95;99514.47;1818043;78;21072;-79
2021/06/16 04:53:25;;;;;;;7.15;6.45;;;;;;;23.67;58.84;99511.51;1806921;78;21029;-78
2021/06/16 04:55:52;;;;;;;8.43;7.00;;;;;;;23.69;60.21;99516.13;1813597;78;21440;-81
2021/06/16 04:58:19;;;;;;;7.22;6.45;;;;;;;23.72;60.65;99518.34;1820812;78;21005;-78
2021/06/16 05:00:45;;;;;;;9.88;6.72;;;;;;;23.77;61.06;99518.09;1816462;78;21064;-82
2021/06/16 05:03:12;;;;;;;8.55;7.08;;;;;;;23.82;60.84;99522.23;1821893;78;21009;-79
2021/06/16 05:05:39;;;;;;;8.33;7.33;;;;;;;23.85;60.89;99514.37;1823557;78;21029;-79
2021/06/16 05:08:06;;;;;;;8.10;7.35;;;;;;;23.90;60.80;99525.27;1821069;78;21785;-78
2021/06/16 05:10:33;;;;;;;7.80;7.10;;;;;;;23.94;60.75;99523.66;1820456;78;21485;-77
2021/06/16 05:12:59;;;;;;;8.58;6.75;;;;;;;24.00;60.70;99519.63;1823477;77;21001;-76
2021/06/16 05:15:26;;;;;;;7.87;6.55;;;;;;;24.05;60.41;99523.19;1812599;77;22219;-75
2021/06/16 05:17:52;;;;;;;8.43;6.85;;;;;;;24.10;60.05;99521.04;1808962;77;21528;-77
2021/06/16 05:20:19;;;;;;;9.13;7.08;;;;;;;24.14;59.89;99518.91;1826367;77;21114;-77
2021/06/16 05:22:47;;;;;;;8.48;6.35;;;;;;;24.19;59.34;99528.16;1810659;77;21475;-75
2021/06/16 05:25:15;;;;;;;8.00;6.90;;;;;;;24.22;59.28;99535.75;1774293;77;21012;-76
2021/06/16 05:27:41;;;;;;;8.15;6.92;;;;;;;24.24;59.10;99533.07;1787349;78;20975;-78
2021/06/16 05:30:09;;;;;;;9.15;6.40;;;;;;;24.28;59.20;99542.84;1813869;77;21068;-77
2021/06/16 05:32:36;;;;;;;6.97;6.28;;;;;;;24.31;59.04;99539.06;1814733;77;22338;-77
2021/06/16 05:35:06;;;;;;;10.43;6.55;;;;;;;24.36;58.84;99537.45;1813136;77;20990;-81
2021/06/16 05:37:33;;;;;;;6.45;5.95;;;;;;;24.41;58.39;99541.01;1814978;77;21031;-83
2021/06/16 05:40:00;;;;;;;6.58;6.08;;;;;;;24.46;58.47;99547.83;1827028;77;21044;-79
2021/06/16 05:42:26;;;;;;;6.42;5.78;;;;;;;24.49;58.50;99550.02;1811758;77;21044;-78
2021/06/16 05:44:53;;;;;;;6.83;6.17;;;;;;;24.55;58.50;99551.41;1815103;77;21381;-78
2021/06/16 05:47:19;;;;;;;8.90;6.80;;;;;;;24.60;58.43;99548.19;1823450;77;21017;-80
2021/06/16 05:49:46;;;;;;;7.67;5.87;;;;;;;24.66;57.88;99553.09;1827190;78;22122;-80
2021/06/16 05:52:12;;;;;;;6.35;5.85;;;;;;;24.69;57.86;99548.50;1812295;77;21001;-80
2021/06/16 05:54:38;;;;;;;6.78;6.10;;;;;;;24.75;57.78;99542.55;1820680;78;21083;-83
2021/06/16 05:57:05;;;;;;;5.95;5.35;;;;;;;24.78;57.57;99548.23;1820459;77;21929;-84
2021/06/16 05:59:33;;;;;;;6.70;6.10;;;;;;;24.82;57.55;99548.01;1821716;77;21072;-85
2021/06/16 06:02:01;;;;;;;6.80;6.25;;;;;;;24.86;57.33;99546.39;1816112;77;21040;-80
2021/06/16 06:04:28;;;;;;;8.20;5.60;;;;;;;24.90;57.05;99547.48;1824213;77;20987;-78
2021/06/16 06:06:56;;;;;;;6.72;6.12;;;;;;;24.95;56.99;99549.94;1831066;77;21079;-82
2021/06/16 06:09:22;;;;;;;6.30;5.80;;;;;;;24.98;56.41;99548.05;1808078;77;21117;-82
2021/06/16 06:11:49;;;;;;;6.72;5.55;;;;;;;25.02;56.44;99553.22;1824730;77;21049;-80
2021/06/16 06:14:15;;;;;;;6.12;5.47;;;;;;;25.07;56.34;99551.86;1811433;78;21044;-81
2021/06/16 06:16:41;;;;;;;6.20;5.60;;;;;;;25.11;55.59;99554.30;1817451;78;21027;-76
2021/06/16 06:19:08;;;;;;;6.62;5.25;;;;;;;25.12;55.60;99556.77;1815126;78;21562;-75
2021/06/16 06:21:35;;;;;;;6.00;5.50;;;;;;;25.15;55.49;99565.46;1809854;78;21132;-72
2021/06/16 06:24:02;;;;;;;6.75;5.87;;;;;;;25.16;55.87;99562.48;1818744;78;21012;-81
2021/06/16 06:26:30;;;;;;;6.40;5.42;;;;;;;25.20;55.99;99564.93;1745401;80;21088;-80
2021/06/16 06:28:57;;;;;;;8.88;6.08;;;;;;;25.25;56.15;99558.73;1758507;80;21039;-79
2021/06/16 06:31:24;;;;;;;6.97;5.83;;;;;;;25.29;56.41;99565.27;1774006;79;21161;-79
2021/06/16 06:33:50;;;;;;;5.85;5.40;;;;;;;25.35;56.21;99565.53;1781676;78;21522;-78
2021/06/16 06:36:19;;;;;;;6.30;5.70;;;;;;;25.41;56.02;99566.36;1811850;77;21009;-76
2021/06/16 06:38:47;;;;;;;10.18;5.50;;;;;;;25.45;55.78;99568.25;1810057;77;21532;-75
2021/06/16 06:41:14;;;;;;;6.92;6.00;;;;;;;25.49;55.63;99571.25;1811018;78;21052;-76
2021/06/16 06:43:41;;;;;;;7.53;5.72;;;;;;;25.55;55.53;99568.80;1821669;77;21402;-75
2021/06/16 06:46:07;;;;;;;6.47;5.95;;;;;;;25.59;55.35;99573.16;1817370;78;21126;-77
2021/06/16 06:48:33;;;;;;;6.70;6.08;;;;;;;25.63;55.20;99571.53;1805489;78;21090;-74
2021/06/16 06:51:00;;;;;;;16.45;10.80;;;;;;;25.66;55.77;99573.72;1821389;78;21073;-78
2021/06/16 06:53:29;;;;;;;9.00;8.10;;;;;;;25.71;55.64;99581.89;1818180;78;21580;-78
2021/06/16 06:55:56;;;;;;;7.87;6.75;;;;;;;25.76;55.40;99576.42;1814745;78;21018;-77
2021/06/16 06:58:24;;;;;;;10.13;7.00;;;;;;;25.82;55.24;99575.88;1810953;77;21094;-76
2021/06/16 07:00:50;;;;;;;11.88;7.70;;;;;;;25.86;55.42;99578.32;1817914;77;21013;-77
2021/06/16 07:03:17;;;;;;;10.18;6.85;;;;;;;25.90;55.59;99569.36;1813743;77;21052;-78
2021/06/16 07:05:43;;;;;;;10.40;6.83;;;;;;;25.95;55.65;99574.00;1813540;77;20975;-75
2021/06/16 07:08:09;;;;;;;7.95;6.47;;;;;;;25.98;55.41;99570.74;1806537;77;21065;-77
2021/06/16 07:10:36;;;;;;;8.48;5.83;;;;;;;25.99;54.66;99566.91;1805311;78;21500;-86
2021/06/16 07:13:03;;;;;;;10.23;6.35;;;;;;;25.98;54.74;99568.02;1799383;78;21057;-75
2021/06/16 07:15:31;;;;;;;10.30;6.58;;;;;;;25.98;54.45;99561.74;1804996;78;21068;-77
2021/06/16 07:17:58;;;;;;;9.60;6.60;;;;;;;25.98;54.81;99561.74;1800062;79;20997;-80
2021/06/16 07:20:24;;;;;;;9.28;6.35;;;;;;;25.99;54.77;99580.52;1800725;77;21020;-77
2021/06/16 07:22:50;;;;;;;10.30;6.70;;;;;;;26.01;54.97;99576.17;1819845;77;21528;-77
2021/06/16 07:25:19;;;;;;;8.33;7.15;;;;;;;26.03;55.36;99586.23;1806990;79;21010;-76
2021/06/16 07:27:45;;;;;;;8.08;6.40;;;;;;;26.05;54.81;99573.17;1802103;79;21542;-80
2021/06/16 07:30:15;;;;;;;8.08;5.90;;;;;;;26.06;55.15;99571.54;1808133;79;21582;-81
2021/06/16 07:32:41;;;;;;;10.03;6.20;;;;;;;26.07;54.30;99574.52;1808256;78;21088;-78
2021/06/16 07:35:09;;;;;;;7.80;5.97;;;;;;;26.07;54.38;99575.88;1800641;79;21176;-77
2021/06/16 07:37:36;;;;;;;6.37;5.25;;;;;;;26.09;54.43;99579.69;1796689;79;21054;-79
2021/06/16 07:40:06;;;;;;;7.20;6.03;;;;;;;26.11;54.06;99576.70;1803900;79;21442;-75
2021/06/16 07:42:33;;;;;;;5.72;4.97;;;;;;;26.13;54.28;99582.69;1800701;79;21077;-80
2021/06/16 07:44:59;;;;;;;6.78;5.28;;;;;;;26.15;53.77;99588.67;1803488;78;21096;-80
2021/06/16 07:47:26;;;;;;;6.08;5.17;;;;;;;26.17;53.78;99585.12;1807573;78;21529;-82
2021/06/16 07:49:53;;;;;;;5.45;4.95;;;;;;;26.21;53.70;99579.39;1803818;78;21032;-80
2021/06/16 07:52:19;;;;;;;8.63;5.62;;;;;;;26.23;53.91;99580.77;1773215;78;21048;-75
2021/06/16 07:54:46;;;;;;;5.50;5.00;;;;;;;26.27;53.22;99578.31;1809243;78;21047;-74
2021/06/16 07:57:13;;;;;;;5.72;5.03;;;;;;;26.31;53.05;99582.11;1803843;78;21037;-81
2021/06/16 07:59:39;;;;;;;5.33;4.83;;;;;;;26.36;53.01;99582.63;1803870;78;21140;-74
2021/06/16 08:02:06;;;;;;;7.10;5.22;;;;;;;26.40;52.90;99577.70;1805950;78;21057;-77
2021/06/16 08:04:37;;;;;;;6.28;5.22;;;;;;;26.46;52.82;99579.88;1808693;77;21065;-80
2021/06/16 08:07:03;;;;;;;5.30;4.90;;;;;;;26.52;52.35;99582.03;1718120;82;21179;-78
2021/06/16 08:09:29;;;;;;;6.75;6.00;;;;;;;26.55;52.05;99578.22;1755460;81;21017;-79
2021/06/16 08:11:56;;;;;;;8.75;6.70;;;;;;;26.59;51.67;99581.23;1725130;82;22012;-79
2021/06/16 08:14:22;;;;;;;5.78;5.28;;;;;;;26.63;51.45;99570.05;1747747;80;21096;-81
2021/06/16 08:16:48;;;;;;;5.12;4.62;;;;;;;26.68;50.85;99576.84;1755370;79;21090;-71
2021/06/16 08:19:16;;;;;;;5.53;5.08;;;;;;;26.72;50.30;99585.28;1755282;79;21573;-76
2021/06/16 08:21:42;;;;;;;5.15;4.60;;;;;;;26.76;51.04;99577.62;1759149;79;21570;-75
2021/06/16 08:24:09;;;;;;;9.55;6.08;;;;;;;26.80;51.88;99581.41;1816132;77;21186;-74
2021/06/16 08:29:11;;;;;;;6.42;4.78;;;;;;;26.96;52.84;99574.52;1875065;74;22252;-77
2021/06/16 08:31:38;;;;;;;5.28;4.75;;;;;;;26.93;52.19;99578.64;1787155;80;21071;-76
2021/06/16 08:34:04;;;;;;;6.60;4.78;;;;;;;26.99;52.26;99575.34;1804305;78;21109;-72
2021/06/16 08:36:31;;;;;;;5.67;4.60;;;;;;;27.05;52.43;99583.75;1753825;79;21034;-72
2021/06/16 08:38:58;;;;;;;6.03;4.55;;;;;;;27.09;51.96;99574.47;1814252;78;21507;-75
2021/06/16 08:41:26;;;;;;;4.75;4.35;;;;;;;27.06;51.93;99576.66;1821072;77;21053;-76
2021/06/16 08:43:53;;;;;;;4.83;4.40;;;;;;;27.12;51.62;99586.98;1785295;78;21631;-75
2021/06/16 08:46:19;;;;;;;5.10;4.00;;;;;;;27.13;50.77;99591.88;1744630;80;21075;-75
2021/06/16 08:48:46;;;;;;;4.58;3.80;;;;;;;27.14;50.92;99588.88;1766732;80;20990;-74
2021/06/16 08:51:13;;;;;;;5.28;4.37;;;;;;;27.18;50.87;99589.95;1793407;79;21081;-73
2021/06/16 08:53:40;;;;;;;4.50;4.10;;;;;;;27.22;51.09;99590.20;1785262;79;21081;-76
2021/06/16 08:56:06;;;;;;;4.87;3.75;;;;;;;27.25;50.62;99589.65;1777891;79;21549;-79
2021/06/16 08:58:37;;;;;;;4.05;3.75;;;;;;;27.28;50.42;99589.09;1791243;79;21757;-74
2021/06/16 09:01:05;;;;;;;5.12;4.10;;;;;;;27.30;49.94;99596.45;1791260;79;21013;-76
2021/06/16 09:03:32;;;;;;;3.95;3.60;;;;;;;27.31;49.05;99599.42;1793294;79;21053;-76
2021/06/16 09:06:09;;;;;;;4.03;3.62;;;;;;;27.32;49.01;99596.17;1818917;77;21492;-79
2021/06/16 09:08:51;;;;;;;4.62;3.45;;;;;;;27.34;48.77;99595.34;1803752;77;21014;-77
2021/06/16 09:11:20;;;;;;;3.47;3.17;;;;;;;27.36;49.57;99590.41;1814444;78;21134;-79
2021/06/16 09:13:48;;;;;;;5.10;3.62;;;;;;;27.38;48.91;99595.84;1788738;78;21035;-78
2021/06/16 09:16:29;;;;;;;3.58;3.27;;;;;;;27.41;48.17;99586.27;1818957;77;21588;-76
2021/06/16 09:18:56;;;;;;;3.45;3.15;;;;;;;27.42;48.10;99591.44;1790090;80;21033;-80
2021/06/16 09:21:37;;;;;;;3.70;3.35;;;;;;;27.43;48.83;99602.63;1781304;80;21100;-79
2021/06/16 09:24:07;;;;;;;3.83;3.10;;;;;;;27.45;48.58;99593.61;1787472;80;21167;-77
2021/06/16 09:26:36;;;;;;;3.65;3.33;;;;;;;27.48;49.08;99592.78;1813837;77;21060;-79
2021/06/16 09:29:03;;;;;;;4.15;3.58;;;;;;;27.51;49.01;99588.94;1772985;78;21066;-77
2021/06/16 09:31:42;;;;;;;3.47;3.00;;;;;;;27.53;48.95;99582.65;1765379;80;21057;-79
2021/06/16 09:34:14;;;;;;;3.25;2.95;;;;;;;27.55;48.71;99584.54;1752979;81;21534;-79
2021/06/16 09:36:54;;;;;;;3.80;3.27;;;;;;;27.57;48.63;99591.08;1753577;81;21606;-79
2021/06/16 09:39:24;;;;;;;3.58;3.27;;;;;;;27.58;48.08;99593.53;1754272;81;21630;-76
2021/06/16 09:42:12;;;;;;;3.92;3.35;;;;;;;27.60;47.91;99594.06;1751642;81;21143;-73
2021/06/16 09:44:45;;;;;;;;;;;;;;;27.62;47.33;99586.41;1754427;81;21021;-76
2021/06/16 09:47:16;;;;;;;3.33;3.02;;;;;;;27.68;47.97;99595.89;1754227;81;20524;-74
2021/06/16 09:49:59;;;;;;;4.08;3.22;;;;;;;27.63;47.91;99597.56;1755116;81;21885;-75
2021/06/16 09:52:38;;;;;;;4.33;3.27;;;;;;;27.68;48.18;99594.53;1753323;81;21041;-74
2021/06/16 09:55:09;;;;;;;5.25;2.85;;;;;;;27.72;48.24;99595.05;1743808;81;21581;-74
2021/06/16 09:57:35;;;;;;;4.17;2.90;;;;;;;27.76;48.26;99598.84;1739452;81;21061;-73
2021/06/16 10:00:12;;;;;;;3.55;2.92;;;;;;;27.78;47.92;99596.63;1753175;81;21002;-75
2021/06/16 10:02:40;;;;;;;3.30;2.87;;;;;;;27.81;47.91;99596.05;1766719;79;21115;-81
2021/06/16 10:05:11;;;;;;;3.95;2.77;;;;;;;27.85;47.74;99601.75;1768930;79;21101;-75
2021/06/16 10:07:37;;;;;;;3.00;2.70;;;;;;;27.88;47.67;99589.47;1765087;80;21114;-75
2021/06/16 10:10:09;;;;;;;3.20;2.90;;;;;;;27.92;47.81;99588.63;1769077;80;21104;-75
2021/06/16 10:12:41;;;;;;;3.83;2.70;;;;;;;27.97;47.87;99595.41;1762921;79;21149;-75
2021/06/16 10:15:11;;;;;;;3.30;3.00;;;;;;;28.00;47.76;99587.99;1772372;79;21097;-73
2021/06/16 10:17:39;;;;;;;3.30;3.00;;;;;;;28.03;47.70;99590.16;1736849;81;21485;-78
2021/06/16 10:20:08;;;;;;;3.10;2.90;;;;;;;28.08;47.24;99579.73;1759179;81;21078;-72
2021/06/16 10:22:34;;;;;;;3.72;2.72;;;;;;;28.13;47.38;99585.71;1751506;79;21074;-75
2021/06/16 10:25:01;;;;;;;4.10;2.77;;;;;;;28.18;47.06;99587.84;1754412;81;21574;-75
2021/06/16 10:27:39;;;;;;;2.95;2.67;;;;;;;28.22;46.89;99573.03;1750353;79;21923;-74
2021/06/16 10:30:13;;;;;;;3.45;3.08;;;;;;;28.26;46.06;99575.47;1773991;79;21549;-74
2021/06/16 10:32:46;;;;;;;4.12;2.77;;;;;;;28.29;46.15;99570.78;1782223;80;21177;-76
2021/06/16 10:35:35;;;;;;;3.58;2.67;;;;;;;28.34;46.01;99572.66;1773145;80;21004;-80
2021/06/16 10:38:20;;;;;;;5.05;2.70;;;;;;;28.39;45.94;99571.22;1833596;77;21069;-74
2021/06/16 10:40:53;;;;;;;5.25;3.30;;;;;;;28.43;46.20;99562.70;1841262;77;21174;-74
2021/06/16 10:43:28;;;;;;;5.45;3.10;;;;;;;28.48;46.34;99569.48;1828672;76;21002;-72
2021/06/16 10:45:58;;;;;;;3.52;3.05;;;;;;;28.53;46.56;99565.89;1809376;78;21132;-71
2021/06/16 10:48:56;;;;;;;7.00;3.65;;;;;;;28.58;46.53;99572.67;1803656;78;21052;-72
2021/06/16 10:51:34;;;;;;;6.58;3.58;;;;;;;28.62;46.44;99571.78;1749813;80;21145;-75
2021/06/16 10:54:23;;;;;;;5.95;3.27;;;;;;;28.69;46.35;99571.44;1744052;81;21153;-73
2021/06/16 10:57:05;;;;;;;7.03;3.92;;;;;;;28.74;46.68;99578.75;1812139;77;21073;-68
2021/06/16 10:59:51;;;;;;;5.75;3.12;;;;;;;28.78;46.90;99565.59;1819300;77;21026;-67
2021/06/16 11:02:36;;;;;;;5.35;3.35;;;;;;;28.82;46.78;99565.82;1845709;77;21016;-67
2021/06/16 11:05:28;;;;;;;6.33;3.20;;;;;;;28.88;46.60;99567.91;1824509;77;21069;-68
2021/06/16 11:07:55;;;;;;;5.37;3.50;;;;;;;28.93;46.61;99569.22;1844783;77;21854;-68
2021/06/16 11:10:23;;;;;;;4.25;2.47;;;;;;;29.00;46.45;99570.48;1802791;79;20990;-69
2021/06/16 11:12:53;;;;;;;4.22;2.98;;;;;;;29.06;46.25;99576.69;1762252;77;21061;-71
2021/06/16 11:15:29;;;;;;;4.03;3.08;;;;;;;29.13;45.70;99576.34;1842092;77;21466;-70
2021/06/16 11:18:00;;;;;;;5.47;3.22;;;;;;;29.18;45.48;99568.88;1844102;77;21100;-72
2021/06/16 11:20:36;;;;;;;4.55;3.00;;;;;;;29.25;44.26;99563.61;1759286;79;21171;-73
2021/06/16 11:23:04;;;;;;;6.62;2.98;;;;;;;29.28;43.12;99568.47;1838456;77;20993;-76
2021/06/16 11:25:40;;;;;;;3.33;3.02;;;;;;;29.26;42.29;99574.80;1849196;77;21010;-72
2021/06/16 11:28:22;;;;;;;5.80;2.80;;;;;;;29.24;41.54;99579.19;1838937;77;21184;-75
2021/06/16 11:30:59;;;;;;;3.52;2.83;;;;;;;29.22;40.93;99567.73;1813025;77;21041;-75
2021/06/16 11:33:33;;;;;;;4.45;2.87;;;;;;;29.19;40.53;99576.55;1843699;77;21128;-76
2021/06/16 11:36:07;;;;;;;3.98;3.08;;;;;;;29.16;40.19;99567.55;1819711;77;21042;-74
2021/06/16 11:38:37;;;;;;;4.43;2.90;;;;;;;29.11;40.00;99568.42;1850746;77;21027;-75
2021/06/16 11:41:17;;;;;;;4.37;3.42;;;;;;;29.08;39.88;99566.27;1825666;77;21540;-76
2021/06/16 11:44:01;;;;;;;6.00;5.42;;;;;;;29.06;39.92;99545.80;1845601;77;21097;-74
2021/06/16 11:46:34;;;;;;;7.22;6.55;;;;;;;29.05;40.41;99544.97;1842336;77;21122;-76